Latest Coastal Weather Observations for Gove Airport

IDD60701

Issued at 4:21 am CST Saturday 22 July 2017 (issued every 10 minutes, with the page automatically refreshed every 10 minutes)

About coastal observations | Map of coastal stations | Coastal observations for NT | Marine services | Other Formats
Station Details ID: 014508 Name: GOVE AIRPORT Lat: -12.27 Lon: 136.82 Height: 51.6 m
Data from the previous 72 hours. | See also: Recent months at Gove Airport
Date/Time
CST
Temp
°C
Wind Pressure Rain since
9am
mm
Weather Cloud Vis
km
Sea
Height
m
Swell
Dir  Spd
kts
Gust
kts
hPa Trend Height
m
Period
s
Dir
22/04:00am 22.2 S 5 6 1013.2 - 0.0 - - 10 - - - -
22/03:30am 22.4 S 5 7 1013.3 - 0.0 - - 10 - - - -
22/03:00am 22.0 S 5 6 1013.4 F 0.0 - - 10 - - - -
22/02:30am 22.0 SSE 5 7 1013.6 - 0.0 - Partly cloudy 10 - - - -
22/02:00am 21.5 SSE 5 6 1013.9 - 0.0 - - 10 - - - -
22/01:30am 21.2 S 4 6 1014.0 - 0.0 - - 10 - - - -
22/01:00am 20.8 S 4 5 1014.4 - 0.0 - - 10 - - - -
22/12:30am 20.2 S 4 5 1014.7 - 0.0 - - 10 - - - -
22/12:00am 20.1 S 3 4 1015.1 R 0.0 - - 10 - - - -
 
Date/Time
CST
Temp
°C
Wind Pressure Rain since
9am
mm
Weather Cloud Vis
km
Sea
Height
m
Swell
Dir  Spd
kts
Gust
kts
hPa Trend Height
m
Period
s
Dir
21/11:30pm 20.9 S 4 6 1015.2 - 0.0 - - 10 - - - -
21/11:00pm 20.9 S 4 5 1015.4 - 0.0 - - 10 - - - -
21/10:30pm 21.9 S 4 5 1015.4 - 0.0 - - 10 - - - -
21/10:00pm 22.2 SSE 4 5 1015.6 - 0.0 - - 10 - - - -
21/09:30pm 22.6 SSE 5 6 1015.5 - 0.0 - - 10 - - - -
21/09:00pm 22.9 SSE 5 6 1015.2 R 0.0 - - 10 - - - -
21/08:30pm 23.2 SSE 5 7 1015.1 - 0.0 - - 10 - - - -
21/08:00pm 23.4 SSE 6 8 1014.9 - 0.0 - - 10 - - - -
21/07:30pm 23.4 SSE 5 7 1014.7 - 0.0 - - 10 - - - -
21/07:00pm 23.8 SSE 6 7 1014.4 - 0.0 - - 10 - - - -
21/06:30pm 24.3 SSE 7 11 1014.1 - 0.0 - - 10 - - - -
21/06:00pm 24.8 SSE 8 12 1013.6 R 0.0 - - 10 - - - -
21/05:30pm 25.5 SSE 9 14 1013.3 - 0.0 - - 10 - - - -
21/05:00pm 25.9 SSE 9 13 1013.0 - 0.0 - - 10 - - - -
21/04:30pm 26.4 SE 14 19 1012.6 - 0.0 - - 10 - - - -
21/04:00pm 26.6 SSE 12 17 1012.5 - 0.0 - - 10 - - - -
21/03:30pm 27.0 SSE 13 21 1012.6 - 0.0 - Mostly clear 10 - - - -
21/03:00pm 27.1 SE 15 20 1012.5 R 0.0 - Mostly clear 10 - - - -
21/02:30pm 28.0 SSE 14 20 1012.6 - 0.0 - Mostly clear 10 - - - -
21/02:00pm 27.9 SSE 13 21 1012.8 - 0.0 - Mostly clear 10 - - - -
21/01:30pm 28.3 SSE 13 17 1013.1 - 0.0 - Mostly clear 10 - - - -
21/01:00pm 28.5 SE 13 19 1013.6 - 0.0 - Mostly clear 10 - - - -
21/12:30pm 28.1 SSE 14 19 1013.9 - 0.0 - Mostly clear 10 - - - -
21/12:00pm 27.9 SSE 12 17 1014.2 S 0.0 - - 10 - - - -
21/11:30am 28.4 SE 14 19 1014.5 - 0.0 - Mostly clear 10 - - - -
21/11:00am 28.0 SE 13 19 1014.8 - 0.0 - Mostly clear 10 - - - -
21/10:30am 27.8 SSE 14 21 1015.0 - 0.0 - Mostly clear 10 - - - -
21/10:00am 27.7 SE 16 21 1015.1 - 0.0 - Mostly clear 10 - - - -
21/09:30am 27.4 SE 15 21 1015.0 - 0.0 - Mostly clear 10 - - - -
21/09:00am 26.8 SE 14 18 1015.0 R 0.0 - Mostly clear 10 - - - -
21/08:30am 26.1 SE 13 18 1014.7 - 0.0 - Mostly clear 10 - - - -
21/08:00am 25.4 SE 9 15 1014.4 - 0.0 - Mostly clear 10 - - - -
21/07:30am 24.4 SSE 7 10 1014.3 - 0.0 - Mostly clear 10 - - - -
21/07:00am 23.3 SSE 7 11 1013.8 - 0.0 - - 10 - - - -
21/06:30am 22.7 SSE 6 9 1013.4 - 0.0 - - 10 - - - -
21/06:00am 22.7 SSE 5 7 1013.1 R 0.0 - - 10 - - - -
21/05:30am 22.9 SSE 6 8 1012.9 - 0.0 - - 10 - - - -
21/05:00am 23.0 SSE 7 11 1012.7 - 0.0 - Partly cloudy 10 - - - -
21/04:30am 23.2 SSE 7 10 1012.5 - 0.0 - Cloudy 10 - - - -
21/04:00am 23.1 SSE 7 11 1012.4 - 0.0 - Cloudy 10 - - - -
21/03:30am 23.1 S 8 13 1012.5 - 0.0 - Cloudy 10 - - - -
21/03:00am 23.0 S 8 11 1012.6 R 0.0 - Mostly clear 10 - - - -
21/02:30am 22.9 S 7 10 1012.7 - 0.0 - - 10 - - - -
21/02:00am 22.9 S 7 10 1013.0 - 0.0 - - 10 - - - -
21/01:30am 23.2 SSE 7 10 1013.3 - 0.0 - Partly cloudy 10 - - - -
21/01:00am 23.3 S 7 10 1013.4 - 0.0 - Partly cloudy 10 - - - -
21/12:30am 23.5 SSE 9 12 1013.5 - 0.0 - Partly cloudy 10 - - - -
21/12:00am 23.5 SSE 7 12 1013.4 F 0.0 - Partly cloudy 10 - - - -
 
Date/Time
CST
Temp
°C
Wind Pressure Rain since
9am
mm
Weather Cloud Vis
km
Sea
Height
m
Swell
Dir  Spd
kts
Gust
kts
hPa Trend Height
m
Period
s
Dir
20/11:30pm 23.6 SSE 9 15 1013.3 - 0.0 - Partly cloudy 10 - - - -
20/11:00pm 23.6 S 8 13 1013.5 - 0.0 - Partly cloudy 10 - - - -
20/10:30pm 23.6 S 8 11 1013.6 - 0.0 - Partly cloudy 10 - - - -
20/10:00pm 23.6 S 8 11 1013.7 - 0.0 - Partly cloudy 10 - - - -
20/09:30pm 23.8 S 8 13 1013.8 - 0.0 - - 10 - - - -
20/09:00pm 23.9 S 9 14 1013.7 R 0.0 - Partly cloudy 10 - - - -
20/08:30pm 24.2 SSE 8 12 1013.5 - 0.0 - Cloudy 10 - - - -
20/08:00pm 24.4 SSE 9 13 1013.2 - 0.0 - Cloudy 10 - - - -
20/07:30pm 24.2 SSE 8 12 1012.8 - 0.0 - Cloudy 10 - - - -
20/07:00pm 24.0 SSE 7 11 1012.6 - 0.0 - Cloudy 10 - - - -
20/06:30pm 24.1 SSE 8 13 1012.2 - 0.0 - Partly cloudy 10 - - - -
20/06:00pm 24.6 SSE 10 15 1011.9 S 0.0 - Cloudy 10 - - - -
20/05:30pm 25.0 SSE 11 17 1011.6 - 0.0 - Partly cloudy 10 - - - -
20/05:00pm 25.3 SSE 10 15 1011.3 - 0.0 - Partly cloudy 9 - - - -
20/04:30pm 25.4 SSE 14 22 1011.2 - 0.0 - Partly cloudy 9 - - - -
20/04:00pm 26.2 SSE 15 22 1011.1 - 0.0 - Partly cloudy 9 - - - -
20/03:30pm 25.7 SSE 13 18 1011.1 - 0.0 - Partly cloudy 9 - - - -
20/03:00pm 26.0 SSE 14 21 1011.3 F 0.0 - Cloudy 9 - - - -
20/02:30pm 26.9 SSE 16 21 1011.2 - 0.0 - Partly cloudy 10 - - - -
20/02:00pm 27.9 SSE 19 26 1011.6 - 0.0 - Partly cloudy 10 - - - -
20/01:30pm 27.6 SE 18 31 1012.0 - 0.0 - Cloudy 10 - - - -
20/01:15pm 27.7 SSE 17 27 1012.3 - 0.0 - Mostly clear 10 - - - -
20/01:00pm 28.1 SE 17 23 1012.5 - 0.0 - Mostly clear 10 - - - -
20/12:30pm 27.7 SE 17 25 1012.9 - 0.0 - Mostly clear 10 - - - -
20/12:00pm 27.6 SSE 16 26 1013.4 F 0.0 - Mostly cloudy 10 - - - -
20/11:30am 28.0 SE 18 26 1013.8 - 0.0 - Mostly clear 10 - - - -
20/11:00am 27.7 SE 19 26 1014.0 - 0.0 - Mostly clear 10 - - - -
20/10:30am 27.2 SSE 16 27 1014.4 - 0.0 - Mostly clear 10 - - - -
20/10:26am 27.2 SSE 17 27 1014.4 - 0.0 - Mostly clear 10 - - - -
20/10:00am 27.9 SSE 15 23 1014.3 - 0.0 - Mostly clear 10 - - - -
20/09:40am 26.5 SSE 16 26 1014.5 - 0.0 - Mostly clear 10 - - - -
20/09:30am 26.4 SE 17 26 1014.5 - 0.0 - Mostly clear 10 - - - -
20/09:00am 26.8 SSE 17 27 1014.3 R 0.0 - Mostly clear 10 - - - -
20/08:49am 26.7 SE 15 25 1014.3 - 0.0 - Partly cloudy 10 - - - -
20/08:30am 25.7 SSE 15 22 1014.0 - 0.0 - - 10 - - - -
20/08:00am 25.7 SSE 14 23 1013.7 - 0.0 - Partly cloudy 10 - - - -
20/07:30am 24.9 SSE 12 18 1013.3 - 0.0 - Partly cloudy 10 - - - -
20/07:00am 24.8 SSE 10 16 1012.8 - 0.0 - - 10 - - - -
20/06:30am 24.8 SSE 11 17 1012.4 - 0.0 - - 10 - - - -
20/06:00am 24.8 SSE 12 16 1012.1 R 0.0 - - 10 - - - -
20/05:30am 25.1 SSE 11 17 1012.0 - 0.0 - - 10 - - - -
20/05:00am 25.1 SSE 12 18 1011.7 - 0.0 - Partly cloudy 10 - - - -
20/04:30am 25.6 SSE 13 17 1011.6 - 0.0 - Partly cloudy 10 - - - -
20/04:00am 24.9 SSE 11 16 1011.3 - 0.0 - - 10 - - - -
20/03:30am 24.6 SSE 10 15 1011.2 - 0.0 - - 10 - - - -
20/03:00am 24.4 SSE 10 16 1011.5 S 0.0 - - 10 - - - -
20/02:30am 24.3 SSE 11 16 1011.6 - 0.0 - - 10 - - - -
20/02:00am 24.4 SSE 9 14 1011.8 - 0.0 - Partly cloudy 10 - - - -
20/01:30am 24.5 SSE 8 11 1012.1 - 0.0 - Partly cloudy 10 - - - -
20/01:00am 24.8 SSE 9 14 1012.1 - 0.0 - Partly cloudy 10 - - - -
20/12:30am 25.0 SSE 7 12 1012.4 - 0.0 - Cloudy 10 - - - -
20/12:00am 25.1 SSE 9 14 1012.6 F 0.0 - Cloudy 10 - - - -
 
Date/Time
CST
Temp
°C
Wind Pressure Rain since
9am
mm
Weather Cloud Vis
km
Sea
Height
m
Swell
Dir  Spd
kts
Gust
kts
hPa Trend Height
m
Period
s
Dir
19/11:30pm 24.6 SSE 8 11 1012.9 - 0.0 - Partly cloudy 10 - - - -
19/11:00pm 24.4 SSE 7 8 1013.0 - 0.0 - - 10 - - - -
19/10:30pm 24.8 SSE 8 11 1013.3 - 0.0 - - 10 - - - -
19/10:00pm 24.8 SSE 8 11 1013.5 - 0.0 - - 10 - - - -
19/09:30pm 25.1 SSE 8 12 1013.5 - 0.0 - - 10 - - - -
19/09:00pm 24.9 SSE 8 10 1013.4 F 0.0 - - 10 - - - -
19/08:30pm 25.0 SSE 9 13 1013.3 - 0.0 - - 10 - - - -
19/08:00pm 25.4 SSE 8 12 1013.1 - 0.0 - - 10 - - - -
19/07:30pm 25.6 SSE 10 15 1012.8 - 0.0 - Partly cloudy 10 - - - -
19/07:00pm 26.0 SSE 10 15 1012.6 - 0.0 - Cloudy 10 - - - -
19/06:30pm 26.0 SSE 10 14 1012.3 - 0.0 - Cloudy 10 - - - -
19/06:00pm 26.2 SSE 9 13 1012.2 R 0.0 - Mostly cloudy 10 - - - -
19/05:30pm 26.4 SSE 11 17 1011.8 - 0.0 - - 10 - - - -
19/05:00pm 27.0 SSE 10 15 1011.6 - 0.0 - Partly cloudy 10 - - - -
19/04:30pm 27.3 SSE 14 24 1011.5 - 0.0 - Partly cloudy 10 - - - -
19/04:00pm 27.8 SSE 15 21 1011.3 - 0.0 - Partly cloudy 10 - - - -
19/03:30pm 28.3 SSE 15 24 1011.1 - 0.0 - Partly cloudy 10 - - - -
19/03:00pm 28.1 SSE 15 23 1011.1 F 0.0 - Partly cloudy 10 - - - -
19/02:30pm 28.7 SSE 15 22 1011.3 - 0.0 - Partly cloudy 10 - - - -
19/02:00pm 28.6 SSE 13 18 1011.7 - 0.0 - Cloudy 10 - - - -
19/01:30pm 29.9 SE 16 23 1012.1 - 0.0 - Partly cloudy 10 - - - -
19/01:00pm 30.1 SE 16 21 1012.4 - 0.0 - - 10 - - - -
19/12:30pm 29.9 SE 16 21 1012.9 - 0.0 - - 10 - - - -
19/12:00pm 28.6 SE 16 24 1013.3 F 0.0 - - 10 - - - -
19/11:33am 28.7 SE 15 25 1013.7 - 0.0 - - 10 - - - -
19/11:30am 28.9 SE 14 21 1013.8 - 0.0 - - 10 - - - -
19/11:00am 29.2 SE 14 22 1014.0 - 0.0 - Mostly clear 10 - - - -
19/10:30am 28.9 SE 13 18 1014.3 - 0.0 - Mostly clear 10 - - - -
19/10:00am 27.9 SE 11 19 1014.3 - 0.0 - - 10 - - - -
19/09:30am 27.6 SE 11 17 1014.4 - 0.0 - Mostly clear 10 - - - -
19/09:00am 27.5 SSE 9 13 1014.3 F 0.0 - Mostly clear 10 - - - -
19/08:30am 25.9 SSE 6 9 1014.3 - 0.0 - Partly cloudy 10 - - - -
19/08:00am 24.8 SSE 5 6 1014.2 - 0.0 - Mostly clear 10 - - - -
19/07:30am 23.5 S 5 7 1013.9 - 0.0 - Cloudy 10 - - - -
19/07:00am 22.8 SSE 5 6 1013.7 - 0.0 - Partly cloudy 10 - - - -
19/06:30am 22.3 SSE 4 5 1013.3 - 0.0 - - 10 - - - -
19/06:00am 22.9 SSE 4 6 1013.0 R 0.0 - - 10 - - - -
19/05:30am 23.1 SSE 5 7 1012.7 - 0.0 - - 10 - - - -
19/05:00am 22.8 SE 5 6 1012.7 - 0.0 - - 8 - - - -
19/04:30am 22.7 SSE 4 5 1012.5 - 0.0 - - 8 - - - -

Other Formats:

Comma delimited format used in spreadsheet applications
http://www.bom.gov.au/fwo/IDD60701/IDD60701.94150.axf

JavaScript Object Notation format (JSON) in row-major order
http://www.bom.gov.au/fwo/IDD60701/IDD60701.94150.json